Time;durP1;ratioP1;P1;durP2;ratioP2;P2;SDS_P1;SDS_P2;PMS_P1;PMS_P2;Temp;Humidity;BMP_temperature;BMP_pressure;BME280_temperature;BME280_humidity;BME280_pressure;Samples;Min_cycle;Max_cycle;Signal;HPM_P1;HPM_P2
2022/06/19 00:02:15;;;;;;;0.50;0.45;;;24.80;55.00;;;;;;6283578;28;20067;-43
2022/06/19 00:05:17;;;;;;;0.80;0.60;;;24.80;55.00;;;;;;6280710;28;20039;-47
2022/06/19 00:08:19;;;;;;;0.35;0.30;;;24.80;55.00;;;;;;6277132;28;21021;-44
2022/06/19 00:11:22;;;;;;;0.50;0.40;;;24.70;55.00;;;;;;6280078;28;20120;-44
2022/06/19 00:14:24;;;;;;;0.73;0.57;;;24.70;55.00;;;;;;6285393;28;20160;-45
2022/06/19 00:17:26;;;;;;;0.98;0.60;;;24.70;55.00;;;;;;6280504;28;20171;-48
2022/06/19 00:20:28;;;;;;;0.95;0.63;;;24.60;55.00;;;;;;6278862;28;20035;-46
2022/06/19 00:23:29;;;;;;;0.52;0.40;;;24.70;55.00;;;;;;6285779;28;20082;-44
2022/06/19 00:26:31;;;;;;;0.90;0.50;;;24.70;55.00;;;;;;6280873;28;20154;-46
2022/06/19 00:29:33;;;;;;;0.70;0.63;;;24.80;55.10;;;;;;6278793;28;21056;-46
2022/06/19 00:32:34;;;;;;;0.57;0.50;;;24.70;55.10;;;;;;6281643;28;20051;-47
2022/06/19 00:35:36;;;;;;;1.30;0.55;;;24.70;55.10;;;;;;6284499;28;20044;-49
2022/06/19 00:38:38;;;;;;;0.90;0.70;;;24.70;55.10;;;;;;6277758;28;20166;-45
2022/06/19 00:41:40;;;;;;;0.60;0.50;;;24.60;55.00;;;;;;6285094;28;20043;-46
2022/06/19 00:44:43;;;;;;;1.13;0.63;;;24.60;55.10;;;;;;6282083;28;20036;-45
2022/06/19 00:47:44;;;;;;;0.75;0.60;;;24.60;55.10;;;;;;6293657;28;21221;-44
2022/06/19 00:50:49;;;;;;;0.43;0.43;;;24.70;55.30;;;;;;6281761;28;20166;-44
2022/06/19 00:53:50;;;;;;;1.00;0.60;;;24.50;55.30;;;;;;6281210;28;20044;-46
2022/06/19 00:56:52;;;;;;;0.82;0.45;;;24.60;55.40;;;;;;6281306;28;21109;-44
2022/06/19 00:59:57;;;;;;;0.63;0.50;;;24.60;55.50;;;;;;6276178;28;20057;-45
2022/06/19 01:03:03;;;;;;;0.35;0.30;;;24.60;55.60;;;;;;6283741;28;20114;-44
2022/06/19 01:06:06;;;;;;;0.82;0.40;;;24.50;55.60;;;;;;6282540;28;20075;-45
2022/06/19 01:09:08;;;;;;;0.70;0.50;;;24.60;55.60;;;;;;6275553;28;20074;-44
2022/06/19 01:12:11;;;;;;;0.80;0.38;;;24.60;55.60;;;;;;6282818;28;20043;-48
2022/06/19 01:15:17;;;;;;;0.82;0.40;;;24.60;55.60;;;;;;6280431;28;20075;-44
2022/06/19 01:18:20;;;;;;;0.50;0.50;;;24.50;55.50;;;;;;6273698;28;20117;-46
2022/06/19 01:21:41;;;;;;;0.63;0.38;;;24.50;55.50;;;;;;6278704;28;20048;-46
2022/06/19 01:24:56;;;;;;;0.60;0.53;;;24.50;55.50;;;;;;6280859;28;20039;-47
2022/06/19 01:31:16;;;;;;;0.80;0.57;;;24.50;55.50;;;;;;6286294;28;20910;-44
2022/06/19 01:34:32;;;;;;;0.70;0.50;;;24.40;55.40;;;;;;6273514;28;20507;-43
2022/06/19 01:37:35;;;;;;;0.43;0.43;;;24.40;55.40;;;;;;6287023;28;20099;-45
2022/06/19 01:40:41;;;;;;;0.52;0.45;;;24.30;55.30;;;;;;6282067;28;20063;-43
2022/06/19 01:43:43;;;;;;;0.47;0.38;;;24.40;55.30;;;;;;6274470;28;20926;-45
2022/06/19 01:46:44;;;;;;;0.45;0.43;;;24.40;55.20;;;;;;6262906;28;20086;-44
2022/06/19 01:49:49;;;;;;;0.40;0.35;;;24.40;55.10;;;;;;6262949;28;20043;-46
2022/06/19 01:52:57;;;;;;;0.90;0.43;;;24.40;55.10;;;;;;6262770;28;20071;-45
2022/06/19 01:55:59;;;;;;;0.40;0.30;;;24.30;55.00;;;;;;6267393;28;20078;-43
2022/06/19 01:59:05;;;;;;;0.80;0.38;;;24.30;55.10;;;;;;6263593;28;20116;-44
2022/06/19 02:02:11;;;;;;;0.52;0.50;;;24.30;55.00;;;;;;6266089;28;20357;-47
2022/06/19 02:05:12;;;;;;;0.70;0.50;;;24.30;55.00;;;;;;6265157;28;20599;-45
2022/06/19 02:08:16;;;;;;;1.08;0.43;;;24.30;55.00;;;;;;6265654;28;20059;-44
2022/06/19 02:11:20;;;;;;;0.75;0.47;;;24.30;55.00;;;;;;6263001;28;20193;-46
2022/06/19 02:14:22;;;;;;;0.70;0.50;;;24.30;55.00;;;;;;6268284;28;20213;-44
2022/06/19 02:17:30;;;;;;;0.70;0.40;;;24.30;55.00;;;;;;6267319;28;20044;-44
2022/06/19 02:20:32;;;;;;;1.10;0.52;;;24.30;54.90;;;;;;6254398;28;20147;-44
2022/06/19 02:23:38;;;;;;;0.90;0.60;;;24.30;54.90;;;;;;6248011;28;20646;-43
2022/06/19 02:26:41;;;;;;;1.02;0.50;;;24.20;54.80;;;;;;6268804;28;20363;-46
2022/06/19 02:29:43;;;;;;;0.65;0.47;;;24.20;54.80;;;;;;6272057;28;20055;-45
2022/06/19 02:32:47;;;;;;;0.60;0.40;;;24.20;54.80;;;;;;6268838;28;20154;-44
2022/06/19 02:35:49;;;;;;;0.73;0.50;;;24.20;54.80;;;;;;6264571;28;20069;-46
2022/06/19 02:38:51;;;;;;;1.35;0.68;;;24.20;54.80;;;;;;6270033;28;20168;-49
2022/06/19 02:42:01;;;;;;;0.60;0.50;;;24.20;54.80;;;;;;6271145;28;20067;-46
2022/06/19 02:45:06;;;;;;;0.85;0.57;;;24.20;54.90;;;;;;6268967;28;20083;-44
2022/06/19 02:48:17;;;;;;;1.33;0.73;;;24.20;55.10;;;;;;6269166;28;20055;-46
2022/06/19 02:51:18;;;;;;;0.75;0.47;;;24.20;55.30;;;;;;6268595;28;20040;-48
2022/06/19 02:54:20;;;;;;;1.00;0.60;;;24.20;55.40;;;;;;6267440;28;20156;-45
2022/06/19 02:57:22;;;;;;;0.60;0.50;;;24.20;55.60;;;;;;6262531;28;20355;-46
2022/06/19 03:00:27;;;;;;;0.63;0.45;;;24.20;55.90;;;;;;6266466;28;20248;-44
2022/06/19 03:03:32;;;;;;;0.77;0.50;;;24.20;56.20;;;;;;6267766;28;20579;-45
2022/06/19 03:06:34;;;;;;;1.00;0.60;;;24.10;56.30;;;;;;6272665;28;20151;-45
2022/06/19 03:09:35;;;;;;;0.82;0.50;;;24.20;56.50;;;;;;6263034;28;20380;-45
2022/06/19 03:12:38;;;;;;;0.55;0.47;;;24.20;56.60;;;;;;6272924;28;20302;-43
2022/06/19 03:15:40;;;;;;;0.63;0.38;;;24.20;56.70;;;;;;6267353;28;20150;-45
2022/06/19 03:18:42;;;;;;;0.40;0.40;;;24.20;56.70;;;;;;6266442;28;20407;-44
2022/06/19 03:21:43;;;;;;;0.60;0.50;;;24.20;56.80;;;;;;6272803;28;20043;-45
2022/06/19 03:24:45;;;;;;;0.90;0.57;;;24.10;56.80;;;;;;6267124;28;20365;-43
2022/06/19 03:27:48;;;;;;;0.52;0.43;;;24.10;56.80;;;;;;6268436;28;20820;-45
2022/06/19 03:30:51;;;;;;;0.70;0.68;;;24.10;56.80;;;;;;6253589;28;20969;-44
2022/06/19 03:33:53;;;;;;;0.80;0.50;;;24.20;56.90;;;;;;6268490;28;20158;-43
2022/06/19 03:36:56;;;;;;;0.57;0.50;;;24.10;56.80;;;;;;6268106;28;20625;-43
2022/06/19 03:39:57;;;;;;;0.90;0.60;;;24.10;56.90;;;;;;6268726;28;20764;-44
2022/06/19 03:42:59;;;;;;;1.05;0.57;;;24.10;56.90;;;;;;6270416;28;20159;-44
2022/06/19 03:46:02;;;;;;;0.70;0.50;;;24.10;57.00;;;;;;6265797;28;20173;-44
2022/06/19 03:49:04;;;;;;;0.50;0.50;;;24.00;56.90;;;;;;6266674;28;20094;-43
2022/06/19 03:52:07;;;;;;;0.68;0.50;;;24.00;56.90;;;;;;6272770;28;20047;-45
2022/06/19 03:55:09;;;;;;;1.05;0.77;;;24.00;57.00;;;;;;6272940;28;20066;-48
2022/06/19 03:58:18;;;;;;;1.27;0.60;;;24.00;56.90;;;;;;6270074;28;20268;-48
2022/06/19 04:01:22;;;;;;;0.57;0.35;;;24.00;56.90;;;;;;6270864;28;20143;-44
2022/06/19 04:04:24;;;;;;;0.40;0.40;;;23.90;56.90;;;;;;6268406;28;20845;-43
2022/06/19 04:07:25;;;;;;;0.80;0.50;;;24.00;56.90;;;;;;6264565;28;20178;-45
2022/06/19 04:10:28;;;;;;;0.47;0.32;;;24.00;56.90;;;;;;6249733;28;20505;-44
2022/06/19 04:13:31;;;;;;;0.63;0.50;;;24.00;56.90;;;;;;6266276;28;20153;-46
2022/06/19 04:16:34;;;;;;;0.80;0.68;;;23.90;56.80;;;;;;6268068;28;20158;-47
2022/06/19 04:19:36;;;;;;;0.70;0.50;;;23.80;56.70;;;;;;6265798;28;20052;-45
2022/06/19 04:22:39;;;;;;;0.70;0.50;;;24.00;56.90;;;;;;6269726;28;20547;-43
2022/06/19 04:25:43;;;;;;;1.10;0.60;;;24.00;56.90;;;;;;6261661;28;20048;-43
2022/06/19 04:28:45;;;;;;;0.80;0.50;;;23.90;56.90;;;;;;6264057;28;20051;-45
2022/06/19 04:31:47;;;;;;;0.50;0.40;;;24.00;56.90;;;;;;6266364;28;20454;-46
2022/06/19 04:34:48;;;;;;;0.70;0.55;;;23.90;56.80;;;;;;6268882;28;20047;-45
2022/06/19 04:37:50;;;;;;;0.82;0.70;;;23.90;56.80;;;;;;6269450;28;20050;-44
2022/06/19 04:40:51;;;;;;;0.50;0.38;;;23.90;56.80;;;;;;6268335;28;20075;-46
2022/06/19 04:43:54;;;;;;;0.75;0.50;;;23.80;56.70;;;;;;6268079;28;20554;-45
2022/06/19 04:46:56;;;;;;;0.60;0.60;;;23.90;56.70;;;;;;6265237;28;20075;-44
2022/06/19 04:49:58;;;;;;;0.55;0.30;;;23.90;56.80;;;;;;6269610;28;20247;-49
2022/06/19 04:52:59;;;;;;;0.63;0.50;;;23.90;56.70;;;;;;6267740;28;20576;-45
2022/06/19 04:56:01;;;;;;;0.90;0.50;;;23.90;56.70;;;;;;6261598;28;20047;-45
2022/06/19 04:59:04;;;;;;;0.57;0.40;;;23.90;56.70;;;;;;6269026;28;20326;-44
2022/06/19 05:02:06;;;;;;;0.40;0.30;;;23.80;56.70;;;;;;6265742;28;20339;-47
2022/06/19 05:05:12;;;;;;;0.68;0.38;;;23.90;56.70;;;;;;6267062;28;20418;-44
2022/06/19 05:08:15;;;;;;;0.70;0.50;;;23.90;56.70;;;;;;6265038;28;20051;-48
2022/06/19 05:11:17;;;;;;;0.40;0.38;;;23.90;56.70;;;;;;6248378;28;20523;-46
2022/06/19 05:14:19;;;;;;;1.08;0.50;;;23.80;56.70;;;;;;6266146;28;20980;-46
2022/06/19 05:17:20;;;;;;;0.35;0.32;;;23.90;56.80;;;;;;6266808;28;20044;-44
2022/06/19 05:20:23;;;;;;;0.20;0.20;;;23.80;56.70;;;;;;6258672;28;20692;-43
2022/06/19 05:23:25;;;;;;;0.28;0.20;;;23.90;56.80;;;;;;6260331;28;20040;-46
2022/06/19 05:26:28;;;;;;;0.60;0.32;;;23.90;56.80;;;;;;6263596;28;20407;-45
2022/06/19 05:29:32;;;;;;;0.30;0.30;;;23.80;56.80;;;;;;6250951;28;20056;-45
2022/06/19 05:32:36;;;;;;;0.52;0.40;;;24.00;56.90;;;;;;6267110;28;20123;-44
2022/06/19 05:35:38;;;;;;;0.50;0.30;;;23.90;56.90;;;;;;6267558;28;20044;-46
2022/06/19 05:38:41;;;;;;;0.60;0.40;;;23.90;56.90;;;;;;6267681;28;20458;-47
2022/06/19 05:41:42;;;;;;;0.40;0.35;;;23.90;57.10;;;;;;6263753;28;20075;-46
2022/06/19 05:44:45;;;;;;;0.60;0.30;;;23.90;57.10;;;;;;6258109;28;20137;-45
2022/06/19 05:47:46;;;;;;;0.75;0.50;;;23.90;57.20;;;;;;6260061;28;20516;-46
2022/06/19 05:50:57;;;;;;;0.85;0.40;;;24.00;57.30;;;;;;6262239;28;21031;-48
2022/06/19 05:53:59;;;;;;;0.73;0.43;;;23.90;57.40;;;;;;6268989;28;20834;-45
2022/06/19 05:57:00;;;;;;;0.65;0.45;;;23.90;57.40;;;;;;6254426;28;20486;-48
2022/06/19 06:00:03;;;;;;;0.57;0.38;;;23.90;57.50;;;;;;6255772;28;20086;-46
2022/06/19 06:03:13;;;;;;;0.57;0.40;;;24.00;57.70;;;;;;6265663;28;20411;-43
2022/06/19 06:06:17;;;;;;;0.40;0.40;;;23.90;57.60;;;;;;6258459;28;20106;-45
2022/06/19 06:09:19;;;;;;;0.50;0.40;;;23.90;57.60;;;;;;6262928;28;20672;-47
2022/06/19 06:12:22;;;;;;;0.45;0.30;;;23.90;57.60;;;;;;6266602;28;20043;-44
2022/06/19 06:15:24;;;;;;;0.75;0.50;;;23.80;57.50;;;;;;6267141;28;20167;-46
2022/06/19 06:18:26;;;;;;;0.90;0.40;;;23.90;57.60;;;;;;6262052;28;20890;-44
2022/06/19 06:21:28;;;;;;;0.93;0.50;;;23.90;57.60;;;;;;6262075;28;20052;-44
2022/06/19 06:24:30;;;;;;;0.50;0.40;;;23.80;57.70;;;;;;6264982;28;20043;-48
2022/06/19 06:27:31;;;;;;;0.63;0.43;;;23.90;57.70;;;;;;6265160;28;20055;-43
2022/06/19 06:30:33;;;;;;;0.60;0.43;;;23.80;57.70;;;;;;6265895;28;20449;-44
2022/06/19 06:33:38;;;;;;;0.85;0.50;;;23.80;58.30;;;;;;6263754;28;20346;-44
2022/06/19 06:36:40;;;;;;;1.05;0.50;;;23.90;57.70;;;;;;6262763;28;20154;-44
2022/06/19 06:39:41;;;;;;;0.50;0.47;;;23.80;57.70;;;;;;6266784;28;20043;-44
2022/06/19 06:42:45;;;;;;;0.60;0.40;;;23.90;57.70;;;;;;6267228;28;20040;-45
2022/06/19 06:45:48;;;;;;;0.55;0.40;;;23.90;57.80;;;;;;6257080;28;20446;-47
2022/06/19 06:48:52;;;;;;;0.77;0.40;;;23.90;57.90;;;;;;6266454;28;20339;-44
2022/06/19 06:51:54;;;;;;;0.60;0.50;;;23.90;57.90;;;;;;6249326;28;20363;-45
2022/06/19 06:54:55;;;;;;;0.70;0.40;;;23.80;57.80;;;;;;6263136;28;20147;-44
2022/06/19 06:57:57;;;;;;;0.70;0.50;;;23.80;57.80;;;;;;6249193;28;20052;-44
2022/06/19 07:01:06;;;;;;;0.63;0.50;;;23.90;57.90;;;;;;6262925;28;20219;-45
2022/06/19 07:04:09;;;;;;;0.98;0.50;;;23.80;57.80;;;;;;6265976;28;20380;-45
2022/06/19 07:07:10;;;;;;;0.63;0.38;;;23.80;57.80;;;;;;6266336;28;20278;-45
2022/06/19 07:10:12;;;;;;;0.57;0.45;;;23.80;57.90;;;;;;6261902;28;20295;-47
2022/06/19 07:13:20;;;;;;;0.80;0.35;;;23.80;57.80;;;;;;6260243;28;20418;-44
2022/06/19 07:16:23;;;;;;;0.60;0.30;;;23.80;57.90;;;;;;6266650;28;20047;-44
2022/06/19 07:19:27;;;;;;;1.00;0.63;;;23.80;57.90;;;;;;6268023;28;20059;-45
2022/06/19 07:22:28;;;;;;;0.65;0.47;;;23.90;58.00;;;;;;6263238;28;20357;-43
2022/06/19 07:25:30;;;;;;;1.33;0.70;;;23.90;57.90;;;;;;6266550;28;20168;-44
2022/06/19 07:28:31;;;;;;;0.80;0.50;;;24.00;58.00;;;;;;6266747;28;20670;-44
2022/06/19 07:31:34;;;;;;;0.95;0.60;;;23.80;57.80;;;;;;6266387;28;20162;-43
2022/06/19 07:34:38;;;;;;;0.77;0.50;;;23.80;57.70;;;;;;6264233;28;20174;-46
2022/06/19 07:37:39;;;;;;;0.63;0.50;;;23.80;57.70;;;;;;6264803;28;20062;-46
2022/06/19 07:40:41;;;;;;;0.65;0.43;;;23.80;57.60;;;;;;6261381;28;20044;-44
2022/06/19 07:43:51;;;;;;;0.73;0.50;;;23.70;57.50;;;;;;6262811;28;20163;-46
2022/06/19 07:50:09;;;;;;;0.57;0.40;;;23.70;57.60;;;;;;6244714;28;20517;-45
2022/06/19 07:53:11;;;;;;;0.60;0.30;;;23.80;57.80;;;;;;6265007;28;20884;-44
2022/06/19 07:56:12;;;;;;;0.77;0.40;;;23.80;58.00;;;;;;6265533;28;20393;-44
2022/06/19 07:59:14;;;;;;;0.50;0.40;;;23.90;58.10;;;;;;6259811;28;20120;-44
2022/06/19 08:02:16;;;;;;;0.52;0.50;;;23.90;58.30;;;;;;6261164;28;20040;-44
2022/06/19 08:05:18;;;;;;;0.82;0.50;;;23.80;58.40;;;;;;6266478;28;20453;-46
2022/06/19 08:08:23;;;;;;;0.65;0.38;;;23.90;58.40;;;;;;6278611;28;20559;-44
2022/06/19 08:11:24;;;;;;;0.52;0.40;;;23.80;58.40;;;;;;6263004;28;20179;-43
2022/06/19 08:14:26;;;;;;;0.60;0.32;;;24.00;58.50;;;;;;6265494;28;20043;-46
2022/06/19 08:17:28;;;;;;;0.60;0.35;;;23.90;58.40;;;;;;6255671;28;20042;-44
2022/06/19 08:20:30;;;;;;;0.55;0.40;;;23.90;58.40;;;;;;6257105;28;20044;-44
2022/06/19 08:23:32;;;;;;;0.55;0.47;;;24.00;58.50;;;;;;6262805;28;20457;-47
2022/06/19 08:26:34;;;;;;;0.60;0.30;;;23.90;58.50;;;;;;6263867;28;20048;-45
2022/06/19 08:29:35;;;;;;;0.47;0.30;;;23.90;58.50;;;;;;6259945;28;20052;-43
2022/06/19 08:32:38;;;;;;;0.30;0.22;;;23.80;58.50;;;;;;6258738;28;20040;-44
2022/06/19 08:35:43;;;;;;;0.40;0.32;;;24.00;58.60;;;;;;6263578;28;20467;-45
2022/06/19 08:38:47;;;;;;;0.52;0.43;;;23.90;58.40;;;;;;6251794;28;20051;-44
2022/06/19 08:42:11;;;;;;;0.63;0.30;;;24.00;58.50;;;;;;6263824;28;20082;-46
2022/06/19 08:45:36;;;;;;;0.60;0.32;;;24.00;58.60;;;;;;6255858;28;20362;-43
2022/06/19 08:48:53;;;;;;;0.95;0.40;;;24.00;58.60;;;;;;6261874;28;20222;-46
2022/06/19 08:52:06;;;;;;;0.57;0.30;;;24.00;58.60;;;;;;6260871;28;20373;-46
2022/06/19 08:55:26;;;;;;;0.40;0.38;;;24.10;58.70;;;;;;6261418;28;20075;-43
2022/06/19 08:58:35;;;;;;;0.95;0.30;;;24.00;58.70;;;;;;6260660;28;20182;-47
2022/06/19 09:01:44;;;;;;;0.45;0.25;;;24.00;58.80;;;;;;6261619;28;20206;-47
2022/06/19 09:08:29;;;;;;;0.68;0.28;;;24.00;58.80;;;;;;6256980;28;20491;-44
2022/06/19 09:11:52;;;;;;;0.75;0.45;;;24.10;58.90;;;;;;6249493;28;20048;-44
2022/06/19 09:15:05;;;;;;;0.88;0.30;;;24.10;58.90;;;;;;6256468;28;20044;-46
2022/06/19 09:18:15;;;;;;;0.40;0.30;;;24.00;58.70;;;;;;6259053;28;20838;-44
2022/06/19 09:21:30;;;;;;;0.35;0.28;;;24.00;58.60;;;;;;6258059;28;20552;-45
2022/06/19 09:24:48;;;;;;;0.35;0.30;;;24.00;58.60;;;;;;6261573;28;20635;-44
2022/06/19 09:27:55;;;;;;;0.68;0.30;;;24.10;58.50;;;;;;6266078;28;20959;-45
2022/06/19 09:31:05;;;;;;;0.20;0.20;;;24.10;58.40;;;;;;6252717;28;20168;-47
2022/06/19 09:34:12;;;;;;;0.57;0.20;;;24.00;58.20;;;;;;6261396;28;20729;-45
2022/06/19 09:37:20;;;;;;;0.65;0.50;;;24.10;58.20;;;;;;6265240;28;20288;-44
2022/06/19 09:40:28;;;;;;;0.40;0.20;;;24.00;58.00;;;;;;6260580;28;20168;-44
2022/06/19 09:43:40;;;;;;;0.77;0.40;;;24.20;58.00;;;;;;6258545;28;20326;-46
2022/06/19 09:46:47;;;;;;;0.30;0.30;;;24.20;57.90;;;;;;6255813;28;20579;-43
2022/06/19 09:49:54;;;;;;;0.30;0.28;;;24.10;57.70;;;;;;6262370;28;20276;-46
2022/06/19 09:53:04;;;;;;;0.32;0.30;;;24.20;57.70;;;;;;6259877;28;20547;-47
2022/06/19 09:56:12;;;;;;;0.30;0.30;;;24.20;57.50;;;;;;6262886;28;21120;-43
2022/06/19 09:59:18;;;;;;;0.65;0.25;;;24.20;57.40;;;;;;6262305;28;20047;-44
2022/06/19 10:02:29;;;;;;;0.50;0.30;;;24.20;57.20;;;;;;6264803;28;20048;-45
2022/06/19 10:05:36;;;;;;;0.10;0.10;;;24.30;57.20;;;;;;6266960;28;20043;-43
2022/06/19 10:08:43;;;;;;;0.52;0.22;;;24.30;57.10;;;;;;6261538;28;20158;-44
2022/06/19 10:11:45;;;;;;;0.50;0.30;;;24.30;57.10;;;;;;6267078;28;20044;-47
2022/06/19 10:14:50;;;;;;;0.40;0.20;;;24.30;57.00;;;;;;6248440;28;20154;-46
2022/06/19 10:17:57;;;;;;;0.20;0.20;;;24.20;56.90;;;;;;6258883;28;20979;-44
2022/06/19 10:21:04;;;;;;;0.60;0.40;;;24.30;56.90;;;;;;6260521;28;20636;-44
2022/06/19 10:24:14;;;;;;;0.40;0.22;;;24.30;56.80;;;;;;6264973;28;20474;-48
2022/06/19 10:27:31;;;;;;;0.47;0.20;;;24.40;56.90;;;;;;6266616;28;20044;-45
2022/06/19 10:30:38;;;;;;;0.47;0.35;;;24.40;56.80;;;;;;6249520;28;20554;-44
2022/06/19 10:33:54;;;;;;;0.50;0.30;;;24.30;56.70;;;;;;6267798;28;20126;-46
2022/06/19 10:37:05;;;;;;;0.77;0.40;;;24.40;56.80;;;;;;6268199;28;20480;-46
2022/06/19 10:40:20;;;;;;;0.30;0.30;;;24.40;56.80;;;;;;6266442;28;20052;-45
2022/06/19 10:43:38;;;;;;;0.30;0.30;;;24.40;56.80;;;;;;6261727;28;20495;-43
2022/06/19 10:46:40;;;;;;;0.45;0.30;;;24.50;56.70;;;;;;6266236;28;20044;-44
2022/06/19 10:49:51;;;;;;;0.35;0.30;;;24.50;56.70;;;;;;6263224;28;20575;-45
2022/06/19 10:53:05;;;;;;;0.47;0.40;;;24.50;56.70;;;;;;6264446;28;20896;-46
2022/06/19 10:56:13;;;;;;;0.52;0.28;;;24.50;56.80;;;;;;6257220;28;20317;-46
2022/06/19 10:59:16;;;;;;;0.50;0.30;;;24.50;56.70;;;;;;6254706;28;20486;-47
2022/06/19 11:05:49;;;;;;;0.73;0.40;;;24.60;56.70;;;;;;6262285;28;20295;-43
2022/06/19 11:09:09;;;;;;;0.57;0.30;;;24.60;56.70;;;;;;6266615;28;20087;-44
2022/06/19 11:12:19;;;;;;;0.75;0.45;;;24.60;56.70;;;;;;6256869;28;20214;-47
2022/06/19 11:15:29;;;;;;;0.47;0.45;;;24.60;56.60;;;;;;6262480;28;20296;-48
2022/06/19 11:18:45;;;;;;;0.30;0.20;;;24.60;56.60;;;;;;6255274;28;20252;-46
2022/06/19 11:21:47;;;;;;;0.50;0.32;;;24.70;56.60;;;;;;6260636;28;20182;-43
2022/06/19 11:24:49;;;;;;;0.50;0.40;;;24.70;56.60;;;;;;6266182;28;20248;-44
2022/06/19 11:27:52;;;;;;;0.77;0.40;;;24.70;56.50;;;;;;6263416;28;20409;-45
2022/06/19 11:31:06;;;;;;;0.40;0.20;;;24.80;56.50;;;;;;6262370;28;20154;-45
2022/06/19 11:37:35;;;;;;;0.35;0.30;;;24.80;56.50;;;;;;6263317;28;20490;-43
2022/06/19 11:40:39;;;;;;;0.50;0.40;;;24.80;56.40;;;;;;6264037;28;20043;-44
2022/06/19 11:43:41;;;;;;;1.10;0.40;;;24.80;56.40;;;;;;6261848;28;20579;-45
2022/06/19 11:46:47;;;;;;;0.30;0.30;;;24.90;56.40;;;;;;6258085;28;20083;-47
2022/06/19 11:49:50;;;;;;;0.50;0.50;;;24.90;56.50;;;;;;6249131;28;20341;-46
2022/06/19 11:52:55;;;;;;;0.68;0.40;;;24.90;56.50;;;;;;6260604;28;20188;-44
2022/06/19 11:56:14;;;;;;;0.38;0.30;;;24.80;56.50;;;;;;6250004;28;20140;-47
2022/06/19 11:59:27;;;;;;;0.55;0.40;;;24.70;56.60;;;;;;6258042;28;20405;-46
2022/06/19 12:02:34;;;;;;;0.55;0.50;;;24.90;56.70;;;;;;6254045;28;20448;-45
2022/06/19 12:05:41;;;;;;;0.60;0.50;;;24.90;56.70;;;;;;6258761;28;20192;-44
2022/06/19 12:08:55;;;;;;;0.50;0.43;;;24.90;56.80;;;;;;6264020;28;20398;-45
2022/06/19 12:12:02;;;;;;;0.32;0.32;;;24.90;56.80;;;;;;6257359;28;20359;-46
2022/06/19 12:15:22;;;;;;;0.30;0.28;;;24.90;56.80;;;;;;6259715;28;20211;-47
2022/06/19 12:18:24;;;;;;;0.70;0.40;;;24.90;56.90;;;;;;6240099;28;21651;-44
2022/06/19 12:21:29;;;;;;;0.75;0.40;;;24.90;56.90;;;;;;6254726;28;20109;-45
2022/06/19 12:24:46;;;;;;;0.50;0.32;;;25.00;57.10;;;;;;6239927;28;20424;-47
2022/06/19 12:27:52;;;;;;;0.82;0.60;;;25.10;57.30;;;;;;6253379;28;20210;-46
2022/06/19 12:30:58;;;;;;;0.90;0.68;;;25.10;57.30;;;;;;6257456;28;22243;-47
2022/06/19 12:34:19;;;;;;;0.73;0.60;;;25.10;57.40;;;;;;6238248;28;20397;-44
2022/06/19 12:37:23;;;;;;;0.60;0.55;;;25.00;57.40;;;;;;6257057;28;20044;-46
2022/06/19 12:40:37;;;;;;;0.80;0.50;;;25.00;57.50;;;;;;6254522;28;20048;-44
2022/06/19 12:43:50;;;;;;;0.50;0.43;;;25.00;57.70;;;;;;6248584;28;20251;-43
2022/06/19 12:47:09;;;;;;;0.85;0.70;;;25.00;57.90;;;;;;6257687;28;20184;-48
2022/06/19 12:50:26;;;;;;;0.90;0.50;;;25.00;58.10;;;;;;6255501;28;20325;-47
2022/06/19 12:53:47;;;;;;;1.35;0.70;;;24.90;58.10;;;;;;6253597;28;20051;-43
2022/06/19 12:57:07;;;;;;;0.65;0.60;;;25.00;58.40;;;;;;6248587;28;20750;-45
2022/06/19 13:00:17;;;;;;;0.82;0.60;;;24.90;58.50;;;;;;6253641;28;20955;-45
2022/06/19 13:03:36;;;;;;;0.93;0.70;;;24.90;58.60;;;;;;6261563;28;20408;-46
2022/06/19 13:06:52;;;;;;;0.80;0.70;;;25.00;58.90;;;;;;6260704;28;20274;-44
2022/06/19 13:10:21;;;;;;;1.08;0.65;;;24.90;58.90;;;;;;6256687;28;20055;-46
2022/06/19 13:13:43;;;;;;;1.05;0.75;;;24.90;59.00;;;;;;6252978;28;20421;-48
2022/06/19 13:16:53;;;;;;;1.05;0.80;;;24.90;59.00;;;;;;6255977;28;20179;-45
2022/06/19 13:20:20;;;;;;;1.30;0.98;;;24.90;59.00;;;;;;6253811;28;20795;-46
2022/06/19 13:23:32;;;;;;;1.20;0.90;;;24.90;59.10;;;;;;6257217;28;20336;-44
2022/06/19 13:30:16;;;;;;;1.10;0.93;;;24.90;59.10;;;;;;6257328;28;20059;-48
2022/06/19 13:33:33;;;;;;;0.85;0.80;;;24.90;59.20;;;;;;6251639;28;20895;-47
2022/06/19 13:36:45;;;;;;;0.63;0.60;;;24.70;59.10;;;;;;6255788;28;20413;-46
2022/06/19 13:39:54;;;;;;;0.80;0.70;;;24.70;59.20;;;;;;6258083;28;20048;-43
2022/06/19 13:43:12;;;;;;;0.88;0.70;;;24.90;59.30;;;;;;6260976;28;20240;-43
2022/06/19 13:46:25;;;;;;;1.15;0.70;;;24.80;59.40;;;;;;6257656;28;20367;-44
2022/06/19 13:49:33;;;;;;;0.98;0.82;;;24.80;59.40;;;;;;6256962;28;20382;-47
2022/06/19 13:52:45;;;;;;;0.82;0.73;;;24.80;59.30;;;;;;6250375;28;20121;-45
2022/06/19 13:55:56;;;;;;;0.85;0.73;;;24.80;59.40;;;;;;6251136;28;20043;-47
2022/06/19 13:59:19;;;;;;;0.73;0.73;;;24.80;59.50;;;;;;6236940;28;20361;-45
2022/06/19 14:02:30;;;;;;;1.02;0.63;;;24.80;59.60;;;;;;6247606;28;20106;-47
2022/06/19 14:05:36;;;;;;;0.77;0.70;;;24.80;59.60;;;;;;6254640;28;20451;-45
2022/06/19 14:08:44;;;;;;;0.60;0.60;;;24.80;60.30;;;;;;6254230;28;20421;-46
2022/06/19 14:15:14;;;;;;;0.80;0.80;;;24.80;59.80;;;;;;6250500;28;20923;-43
2022/06/19 14:18:28;;;;;;;0.65;0.52;;;24.70;59.90;;;;;;6252166;28;20823;-46
2022/06/19 14:21:42;;;;;;;0.50;0.50;;;24.80;60.00;;;;;;6254464;28;20057;-45
2022/06/19 14:24:55;;;;;;;0.68;0.68;;;24.70;60.00;;;;;;6258112;28;20107;-44
2022/06/19 14:28:04;;;;;;;0.60;0.55;;;24.70;60.10;;;;;;6251969;28;20174;-47
2022/06/19 14:31:17;;;;;;;0.52;0.52;;;24.70;60.10;;;;;;6256034;28;20153;-44
2022/06/19 14:34:45;;;;;;;0.60;0.50;;;24.70;60.20;;;;;;6256691;28;20345;-45
2022/06/19 14:37:51;;;;;;;0.68;0.60;;;24.70;60.30;;;;;;6245586;28;20891;-49
2022/06/19 14:41:06;;;;;;;0.75;0.60;;;24.70;60.30;;;;;;6261295;28;20132;-47
2022/06/19 14:44:15;;;;;;;0.90;0.60;;;24.80;60.50;;;;;;6260598;28;20168;-46
2022/06/19 14:47:28;;;;;;;0.65;0.50;;;24.70;60.60;;;;;;6262500;28;20148;-46
2022/06/19 14:50:49;;;;;;;0.60;0.60;;;24.70;60.60;;;;;;6264133;28;20381;-45
2022/06/19 14:54:13;;;;;;;0.70;0.52;;;24.80;60.90;;;;;;6265001;28;21035;-45
2022/06/19 14:57:23;;;;;;;0.50;0.43;;;24.70;60.90;;;;;;6263270;28;20067;-46
2022/06/19 15:00:29;;;;;;;0.60;0.60;;;24.70;60.90;;;;;;6254536;28;20500;-45
2022/06/19 15:03:40;;;;;;;0.47;0.45;;;24.80;61.00;;;;;;6254793;28;20040;-45
2022/06/19 15:06:46;;;;;;;0.55;0.55;;;24.70;61.00;;;;;;6255874;28;20403;-44
2022/06/19 15:09:52;;;;;;;1.08;0.70;;;24.90;61.20;;;;;;6256192;28;20604;-45
2022/06/19 15:13:14;;;;;;;0.70;0.60;;;24.80;61.20;;;;;;6251459;28;20048;-45
2022/06/19 15:16:23;;;;;;;0.80;0.70;;;24.80;61.50;;;;;;6239936;28;20449;-45
2022/06/19 15:19:42;;;;;;;0.63;0.60;;;24.90;61.60;;;;;;6248662;28;20116;-45
2022/06/19 15:22:43;;;;;;;0.57;0.57;;;24.90;61.70;;;;;;6247252;28;20546;-45
2022/06/19 15:25:47;;;;;;;0.75;0.60;;;24.80;61.70;;;;;;6253730;28;20378;-43
2022/06/19 15:29:20;;;;;;;0.80;0.60;;;24.90;61.90;;;;;;6241756;28;20139;-44
2022/06/19 15:32:51;;;;;;;0.73;0.73;;;24.80;62.00;;;;;;6241479;28;20474;-47
2022/06/19 15:36:01;;;;;;;0.93;0.65;;;24.90;62.10;;;;;;6244285;28;20175;-46
2022/06/19 15:39:29;;;;;;;0.68;0.50;;;24.80;62.00;;;;;;6228880;28;20147;-45
2022/06/19 15:42:30;;;;;;;0.60;0.60;;;24.90;62.20;;;;;;6238797;28;20151;-45
2022/06/19 15:45:51;;;;;;;0.75;0.50;;;24.80;62.10;;;;;;6240503;28;20251;-46
2022/06/19 15:48:53;;;;;;;0.93;0.60;;;24.90;62.50;;;;;;6231471;28;20162;-46
2022/06/19 15:51:58;;;;;;;0.60;0.60;;;24.90;62.40;;;;;;6241706;28;20946;-45
2022/06/19 15:55:08;;;;;;;0.80;0.80;;;25.00;62.60;;;;;;6246946;28;20378;-44
2022/06/19 15:58:17;;;;;;;0.80;0.60;;;24.90;62.70;;;;;;6240652;28;20331;-44
2022/06/19 16:01:26;;;;;;;0.60;0.60;;;24.90;62.80;;;;;;6236329;28;20203;-47
2022/06/19 16:04:32;;;;;;;0.73;0.73;;;24.90;63.00;;;;;;6201971;28;21577;-46
2022/06/19 16:07:38;;;;;;;0.90;0.85;;;25.00;63.10;;;;;;6237459;28;20337;-47
2022/06/19 16:10:48;;;;;;;1.30;0.90;;;25.00;63.30;;;;;;6238972;28;20186;-46
2022/06/19 16:14:00;;;;;;;0.60;0.55;;;24.90;63.40;;;;;;6217041;28;20521;-43
2022/06/19 16:17:19;;;;;;;0.68;0.68;;;24.90;63.60;;;;;;6235035;28;20076;-44
2022/06/19 16:20:23;;;;;;;0.77;0.70;;;25.00;63.80;;;;;;6230063;28;20302;-45
2022/06/19 16:23:30;;;;;;;0.80;0.65;;;25.00;63.80;;;;;;6234468;28;20499;-45
2022/06/19 16:26:36;;;;;;;0.90;0.73;;;24.90;63.80;;;;;;6248474;27;20120;-45
2022/06/19 16:29:40;;;;;;;1.08;0.70;;;25.00;64.00;;;;;;6223935;28;20063;-46
2022/06/19 16:32:47;;;;;;;0.75;0.75;;;25.00;64.20;;;;;;6228043;28;20322;-43
2022/06/19 16:45:44;;;;;;;0.90;0.77;;;25.10;65.50;;;;;;6256192;28;20154;-44
2022/06/19 16:48:46;;;;;;;0.82;0.80;;;25.10;65.80;;;;;;6240533;28;20162;-44